createdAt,value
2018-09-09T00:00:42.796Z,13.86
2018-09-09T00:03:12.317Z,13.77
2018-09-09T00:05:41.202Z,13.73
2018-09-09T00:08:10.073Z,13.68
2018-09-09T00:10:38.993Z,13.65
2018-09-09T00:13:07.974Z,13.65
2018-09-09T00:15:36.760Z,13.61
2018-09-09T00:18:05.836Z,13.61
2018-09-09T00:20:34.470Z,13.69
2018-09-09T00:23:03.390Z,13.63
2018-09-09T00:25:32.626Z,13.61
2018-09-09T00:28:01.494Z,13.65
2018-09-09T00:30:30.243Z,13.66
2018-09-09T00:32:59.636Z,13.68
2018-09-09T00:35:28.659Z,13.64
2018-09-09T00:37:58.536Z,13.64
2018-09-09T00:40:27.388Z,13.69
2018-09-09T00:42:56.178Z,13.65
2018-09-09T00:45:25.068Z,13.68
2018-09-09T00:47:53.828Z,13.71
2018-09-09T00:50:27.770Z,13.69
2018-09-09T00:53:01.780Z,13.68
2018-09-09T00:55:30.633Z,13.76
2018-09-09T00:57:59.414Z,13.79
2018-09-09T01:00:34.192Z,13.79
2018-09-09T01:03:03.173Z,13.77
2018-09-09T01:05:31.999Z,13.80
2018-09-09T01:08:00.860Z,13.75
2018-09-09T01:10:29.841Z,13.77
2018-09-09T01:12:59.219Z,13.79
2018-09-09T01:15:28.016Z,13.78
2018-09-09T01:17:56.947Z,13.77
2018-09-09T01:20:25.926Z,13.79
2018-09-09T01:22:54.805Z,13.85
2018-09-09T01:25:24.212Z,13.79
2018-09-09T01:27:52.987Z,13.79
2018-09-09T01:30:21.694Z,13.74
2018-09-09T01:32:50.339Z,13.72
2018-09-09T01:35:19.721Z,13.75
2018-09-09T01:37:48.522Z,13.72
2018-09-09T01:40:17.416Z,13.72
2018-09-09T01:42:46.341Z,13.74
2018-09-09T01:45:15.231Z,13.76
2018-09-09T01:47:44.544Z,13.70
2018-09-09T01:50:13.419Z,13.68
2018-09-09T01:52:42.395Z,13.63
2018-09-09T01:55:11.548Z,13.66
2018-09-09T01:57:40.512Z,13.68
2018-09-09T02:00:09.876Z,13.68
2018-09-09T02:02:38.511Z,13.67
2018-09-09T02:05:07.968Z,13.67
2018-09-09T02:07:36.895Z,13.66
2018-09-09T02:10:05.779Z,13.66
2018-09-09T02:12:34.841Z,13.63
2018-09-09T02:15:04.070Z,13.64
2018-09-09T02:17:33.640Z,13.63
2018-09-09T02:20:02.772Z,13.60
2018-09-09T02:22:31.669Z,13.58
2018-09-09T02:25:00.555Z,13.61
2018-09-09T02:27:29.648Z,13.58
2018-09-09T02:29:58.382Z,13.58
2018-09-09T02:32:27.157Z,13.58
2018-09-09T02:34:55.995Z,13.54
2018-09-09T02:37:25.082Z,13.54
2018-09-09T02:39:53.918Z,13.53
2018-09-09T02:42:22.792Z,13.53
2018-09-09T02:44:51.669Z,13.55
2018-09-09T02:47:20.526Z,13.52
2018-09-09T02:49:49.454Z,13.52
2018-09-09T02:52:18.354Z,13.51
2018-09-09T02:54:47.095Z,13.51
2018-09-09T02:57:15.876Z,13.55
2018-09-09T02:59:44.708Z,13.51
2018-09-09T03:02:13.454Z,13.50
2018-09-09T03:04:42.282Z,13.50
2018-09-09T03:07:11.255Z,13.48
2018-09-09T03:09:40.182Z,13.49
2018-09-09T03:12:09.047Z,13.49
2018-09-09T03:14:38.159Z,13.50
2018-09-09T03:17:06.848Z,13.47
2018-09-09T03:19:35.751Z,13.44
2018-09-09T03:22:04.654Z,13.47
2018-09-09T03:24:33.567Z,13.46
2018-09-09T03:27:02.329Z,13.45
2018-09-09T03:29:31.313Z,13.44
2018-09-09T03:32:00.173Z,13.43
2018-09-09T03:34:28.980Z,13.41
2018-09-09T03:36:57.775Z,13.43
2018-09-09T03:39:26.654Z,13.44
2018-09-09T03:41:55.657Z,13.39
2018-09-09T03:44:24.442Z,13.41
2018-09-09T03:46:53.539Z,13.34
2018-09-09T03:49:22.438Z,13.27
2018-09-09T03:51:51.739Z,13.31
2018-09-09T03:54:20.832Z,13.24
2018-09-09T03:56:50.134Z,13.21
2018-09-09T03:59:18.882Z,13.39
2018-09-09T04:04:43.067Z,13.20
2018-09-09T04:07:14.920Z,13.15
2018-09-09T04:09:43.220Z,13.16
2018-09-09T04:12:11.550Z,13.22
2018-09-09T04:14:39.861Z,13.09
2018-09-09T04:17:08.181Z,13.11
2018-09-09T04:19:36.651Z,13.22
2018-09-09T04:22:04.960Z,13.22
2018-09-09T04:24:33.238Z,13.10
2018-09-09T04:27:01.601Z,13.01
2018-09-09T04:29:29.880Z,13.05
2018-09-09T04:31:58.464Z,13.04
2018-09-09T04:34:26.964Z,13.01
2018-09-09T04:36:55.285Z,13.01
2018-09-09T04:39:23.546Z,13.06
2018-09-09T04:41:52.088Z,13.05
2018-09-09T04:44:20.572Z,13.04
2018-09-09T04:46:50.160Z,13.04
2018-09-09T04:49:18.493Z,13.05
2018-09-09T04:51:46.998Z,13.05
2018-09-09T04:54:15.428Z,13.08
2018-09-09T04:56:43.957Z,13.06
2018-09-09T04:59:12.989Z,13.08
2018-09-09T05:01:41.741Z,13.06
2018-09-09T05:04:10.141Z,13.10
2018-09-09T05:06:38.497Z,13.13
2018-09-09T05:09:07.743Z,13.20
2018-09-09T05:11:36.048Z,13.24
2018-09-09T05:14:04.421Z,13.27
2018-09-09T05:16:32.989Z,13.32
2018-09-09T05:19:01.331Z,13.40
2018-09-09T05:21:29.691Z,13.43
2018-09-09T05:23:58.404Z,13.50
2018-09-09T05:26:26.716Z,13.54
2018-09-09T05:28:55.659Z,13.56
2018-09-09T05:31:23.932Z,13.64
2018-09-09T05:33:52.200Z,13.64
2018-09-09T05:36:20.487Z,13.74
2018-09-09T05:38:49.341Z,13.82
2018-09-09T05:41:17.652Z,13.92
2018-09-09T05:43:45.939Z,13.99
2018-09-09T05:46:14.241Z,14.04
2018-09-09T05:48:42.788Z,14.10
2018-09-09T05:51:11.596Z,14.10
2018-09-09T05:53:39.905Z,14.17
2018-09-09T05:56:08.413Z,14.27
2018-09-09T05:58:36.872Z,14.34
2018-09-09T06:01:05.173Z,14.37
2018-09-09T06:03:33.532Z,14.39
2018-09-09T06:06:01.829Z,14.40
2018-09-09T06:08:30.143Z,14.56
2018-09-09T06:10:58.441Z,14.65
2018-09-09T06:13:27.416Z,14.81
2018-09-09T06:15:55.728Z,14.98
2018-09-09T06:18:24.017Z,15.11
2018-09-09T06:20:52.378Z,15.10
2018-09-09T06:23:20.681Z,15.22
2018-09-09T06:25:48.997Z,15.24
2018-09-09T06:28:17.327Z,15.30
2018-09-09T06:30:45.893Z,15.47
2018-09-09T06:33:14.158Z,15.41
2018-09-09T06:35:42.452Z,15.55
2018-09-09T06:38:10.813Z,15.49
2018-09-09T06:40:39.122Z,15.55
2018-09-09T06:43:07.884Z,15.61
2018-09-09T06:45:36.191Z,15.72
2018-09-09T06:48:04.455Z,16.00
2018-09-09T06:50:32.884Z,15.98
2018-09-09T06:53:01.501Z,16.10
2018-09-09T06:55:30.201Z,15.97
2018-09-09T06:58:00.259Z,16.14
2018-09-09T07:00:30.579Z,16.17
2018-09-09T07:02:59.564Z,16.19
2018-09-09T07:05:28.044Z,16.25
2018-09-09T07:07:56.359Z,16.23
2018-09-09T07:10:28.200Z,16.40
2018-09-09T07:12:57.350Z,16.41
2018-09-09T07:15:28.248Z,16.57
2018-09-09T07:17:59.962Z,16.78
2018-09-09T07:20:28.938Z,17.12
2018-09-09T07:22:57.381Z,17.09
2018-09-09T07:25:26.029Z,17.21
2018-09-09T07:27:54.387Z,17.32
2018-09-09T07:30:29.639Z,17.58
2018-09-09T07:32:58.112Z,17.40
2018-09-09T07:35:26.753Z,17.73
2018-09-09T07:37:55.244Z,17.68
2018-09-09T07:40:23.772Z,17.72
2018-09-09T07:42:52.092Z,18.08
2018-09-09T07:45:20.875Z,18.15
2018-09-09T07:47:49.216Z,18.47
2018-09-09T07:50:17.551Z,18.53
2018-09-09T07:52:45.884Z,18.47
2018-09-09T07:55:14.336Z,18.55
2018-09-09T07:57:49.480Z,18.77
2018-09-09T08:00:17.893Z,18.93
2018-09-09T08:02:46.430Z,19.07
2018-09-09T08:05:14.742Z,19.10
2018-09-09T08:07:43.193Z,19.33
2018-09-09T08:10:11.525Z,19.19
2018-09-09T08:12:39.798Z,19.24
2018-09-09T08:15:08.174Z,19.17
2018-09-09T08:17:36.505Z,19.15
2018-09-09T08:20:04.917Z,19.09
2018-09-09T08:22:33.243Z,19.23
2018-09-09T08:25:01.702Z,19.61
2018-09-09T08:27:29.988Z,19.61
2018-09-09T08:29:58.597Z,19.43
2018-09-09T08:32:27.376Z,19.65
2018-09-09T08:34:55.768Z,19.83
2018-09-09T08:37:24.046Z,20.01
2018-09-09T08:39:52.451Z,20.28
2018-09-09T08:42:20.773Z,20.30
2018-09-09T08:44:49.061Z,20.29
2018-09-09T08:47:17.505Z,20.48
2018-09-09T08:49:46.003Z,20.51
2018-09-09T08:52:14.571Z,20.66
2018-09-09T08:54:46.091Z,20.73
2018-09-09T08:57:14.901Z,20.90
2018-09-09T08:59:43.662Z,21.10
2018-09-09T09:02:12.412Z,21.10
2018-09-09T09:04:40.807Z,21.19
2018-09-09T09:07:11.540Z,20.93
2018-09-09T09:09:40.054Z,20.99
2018-09-09T09:12:10.933Z,21.22
2018-09-09T09:14:40.756Z,21.59
2018-09-09T09:17:09.385Z,21.67
2018-09-09T09:19:37.999Z,21.64
2018-09-09T09:22:06.840Z,21.68
2018-09-09T09:24:35.324Z,21.82
2018-09-09T09:27:04.007Z,21.56
2018-09-09T09:29:37.789Z,21.69
2018-09-09T09:32:06.096Z,22.03
2018-09-09T09:34:34.654Z,22.21
2018-09-09T09:37:03.163Z,22.02
2018-09-09T09:39:31.456Z,22.04
2018-09-09T09:41:59.932Z,22.15
2018-09-09T09:44:28.884Z,22.32
2018-09-09T09:46:57.471Z,22.19
2018-09-09T09:49:25.737Z,22.13
2018-09-09T09:51:54.393Z,22.24
2018-09-09T09:54:22.681Z,22.40
2018-09-09T09:56:51.033Z,22.74
2018-09-09T09:59:19.317Z,22.68
2018-09-09T10:01:47.816Z,22.82
2018-09-09T10:04:16.814Z,22.77
2018-09-09T10:06:45.171Z,22.94
2018-09-09T10:09:13.464Z,23.09
2018-09-09T10:11:42.237Z,22.94
2018-09-09T10:14:10.520Z,22.46
2018-09-09T10:16:39.748Z,22.86
2018-09-09T10:19:08.341Z,22.79
2018-09-09T10:21:36.681Z,23.42
2018-09-09T10:24:12.190Z,23.15
2018-09-09T10:26:40.554Z,23.35
2018-09-09T10:29:08.945Z,23.45
2018-09-09T10:31:37.451Z,23.58
2018-09-09T10:34:06.616Z,23.74
2018-09-09T10:36:35.017Z,23.75
2018-09-09T10:39:04.987Z,23.76
2018-09-09T10:41:33.598Z,23.66
2018-09-09T10:44:01.896Z,23.73
2018-09-09T10:46:30.316Z,23.84
2018-09-09T10:48:58.657Z,24.24
2018-09-09T10:51:27.362Z,24.63
2018-09-09T10:53:55.842Z,24.60
2018-09-09T10:56:24.321Z,24.26
2018-09-09T10:58:52.819Z,24.58
2018-09-09T11:01:21.844Z,24.74
2018-09-09T11:03:50.245Z,24.81
2018-09-09T11:06:18.772Z,24.97
2018-09-09T11:08:47.245Z,26.37
2018-09-09T11:11:15.546Z,27.85
2018-09-09T11:13:44.024Z,27.79
2018-09-09T11:16:12.571Z,28.83
2018-09-09T11:18:40.951Z,27.90
2018-09-09T11:21:09.285Z,28.08
2018-09-09T11:23:39.182Z,29.12
2018-09-09T11:26:07.491Z,28.26
2018-09-09T11:28:36.164Z,29.06
2018-09-09T11:31:05.480Z,28.95
2018-09-09T11:33:33.896Z,29.59
2018-09-09T11:36:02.488Z,29.74
2018-09-09T11:38:30.861Z,29.44
2018-09-09T11:40:59.186Z,29.41
2018-09-09T11:43:27.697Z,29.32
2018-09-09T11:45:56.000Z,29.12
2018-09-09T11:48:24.589Z,30.07
2018-09-09T11:50:53.060Z,29.11
2018-09-09T11:53:21.609Z,29.68
2018-09-09T11:55:49.911Z,29.73
2018-09-09T11:58:18.561Z,30.12
2018-09-09T12:00:47.804Z,30.69
2018-09-09T12:03:16.740Z,30.35
2018-09-09T12:05:45.065Z,30.79
2018-09-09T12:08:13.372Z,30.53
2018-09-09T12:10:48.422Z,29.18
2018-09-09T12:13:17.718Z,29.86
2018-09-09T12:15:46.079Z,30.47
2018-09-09T12:18:14.423Z,31.59
2018-09-09T12:20:42.737Z,31.30
2018-09-09T12:23:11.193Z,32.23
2018-09-09T12:25:40.101Z,31.88
2018-09-09T12:28:08.529Z,32.91
2018-09-09T12:30:36.950Z,33.00
2018-09-09T12:33:05.258Z,31.31
2018-09-09T12:35:33.562Z,31.03
2018-09-09T12:38:01.841Z,32.24
2018-09-09T12:40:30.450Z,33.65
2018-09-09T12:43:03.966Z,33.16
2018-09-09T12:45:37.786Z,32.22
2018-09-09T12:48:11.377Z,32.92
2018-09-09T12:50:39.735Z,33.28
2018-09-09T12:53:08.016Z,33.41
2018-09-09T12:55:36.345Z,34.18
2018-09-09T12:58:04.805Z,32.57
2018-09-09T13:00:33.358Z,34.19
2018-09-09T13:03:01.724Z,34.39
2018-09-09T13:05:30.680Z,34.93
2018-09-09T13:07:58.975Z,35.18
2018-09-09T13:10:27.599Z,36.62
2018-09-09T13:13:01.304Z,34.93
2018-09-09T13:15:29.617Z,35.37
2018-09-09T13:17:58.270Z,37.23
2018-09-09T13:20:26.578Z,36.37
2018-09-09T13:22:54.918Z,35.34
2018-09-09T13:25:23.616Z,34.77
2018-09-09T13:27:51.931Z,36.30
2018-09-09T13:30:20.268Z,35.12
2018-09-09T13:32:48.718Z,36.63
2018-09-09T13:35:17.316Z,36.39
2018-09-09T13:37:45.913Z,35.44
2018-09-09T13:40:14.273Z,35.63
2018-09-09T13:42:42.803Z,35.67
2018-09-09T13:45:11.323Z,35.30
2018-09-09T13:47:39.610Z,37.01
2018-09-09T13:50:07.941Z,36.99
2018-09-09T13:52:36.442Z,36.05
2018-09-09T13:55:04.933Z,37.05
2018-09-09T13:57:33.874Z,36.30
2018-09-09T14:00:02.248Z,38.69
2018-09-09T14:02:30.922Z,36.29
2018-09-09T14:04:59.168Z,35.54
2018-09-09T14:07:27.537Z,34.43
2018-09-09T14:09:56.080Z,30.19
2018-09-09T14:12:25.430Z,29.18
2018-09-09T14:14:53.820Z,29.31
2018-09-09T14:17:22.234Z,28.95
2018-09-09T14:19:50.640Z,28.68
2018-09-09T14:22:19.011Z,28.34
2018-09-09T14:24:47.461Z,27.89
2018-09-09T14:27:16.028Z,26.95
2018-09-09T14:29:44.312Z,27.37
2018-09-09T14:32:12.657Z,27.21
2018-09-09T14:34:40.958Z,26.89
2018-09-09T14:37:09.315Z,27.06
2018-09-09T14:39:37.686Z,26.98
2018-09-09T14:42:06.501Z,27.15
2018-09-09T14:44:34.977Z,26.69
2018-09-09T14:47:03.295Z,26.79
2018-09-09T14:49:31.611Z,26.80
2018-09-09T14:52:00.106Z,26.40
2018-09-09T14:54:28.441Z,26.26
2018-09-09T14:56:57.180Z,26.35
2018-09-09T14:59:25.493Z,26.25
2018-09-09T15:01:54.193Z,26.02
2018-09-09T15:04:22.611Z,25.57
2018-09-09T15:06:50.943Z,25.62
2018-09-09T15:09:19.438Z,25.60
2018-09-09T15:11:48.057Z,25.55
2018-09-09T15:14:16.431Z,25.72
2018-09-09T15:16:44.809Z,25.80
2018-09-09T15:19:13.616Z,25.76
2018-09-09T15:21:42.166Z,25.70
2018-09-09T15:24:10.441Z,25.58
2018-09-09T15:26:39.262Z,25.71
2018-09-09T15:29:07.715Z,25.62
2018-09-09T15:31:37.295Z,25.64
2018-09-09T15:34:05.583Z,25.50
2018-09-09T15:36:34.019Z,25.50
2018-09-09T15:39:02.314Z,25.50
2018-09-09T15:41:30.801Z,25.26
2018-09-09T15:43:59.182Z,25.34
2018-09-09T15:46:28.254Z,25.23
2018-09-09T15:48:56.527Z,25.23
2018-09-09T15:51:24.914Z,24.93
2018-09-09T15:53:53.215Z,24.94
2018-09-09T15:56:21.546Z,24.77
2018-09-09T15:58:50.002Z,24.69
2018-09-09T16:01:18.322Z,24.78
2018-09-09T16:03:46.874Z,24.73
2018-09-09T16:06:16.128Z,24.84
2018-09-09T16:08:44.821Z,24.78
2018-09-09T16:11:13.190Z,24.70
2018-09-09T16:13:41.786Z,24.56
2018-09-09T16:16:10.125Z,24.46
2018-09-09T16:18:38.759Z,24.42
2018-09-09T16:21:07.087Z,24.33
2018-09-09T16:23:35.535Z,24.33
2018-09-09T16:26:04.018Z,23.92
2018-09-09T16:28:32.330Z,23.82
2018-09-09T16:31:00.672Z,24.06
2018-09-09T16:33:28.969Z,23.89
2018-09-09T16:35:57.300Z,23.95
2018-09-09T16:38:26.078Z,23.80
2018-09-09T16:40:54.651Z,23.84
2018-09-09T16:43:22.949Z,23.60
2018-09-09T16:45:51.296Z,23.73
2018-09-09T16:48:19.616Z,23.28
2018-09-09T16:50:48.115Z,23.24
2018-09-09T16:53:16.666Z,23.00
2018-09-09T16:55:45.191Z,22.74
2018-09-09T16:58:14.297Z,22.96
2018-09-09T17:00:42.624Z,22.66
2018-09-09T17:03:12.844Z,22.40
2018-09-09T17:05:41.174Z,22.24
2018-09-09T17:08:09.605Z,22.00
2018-09-09T17:10:38.622Z,21.85
2018-09-09T17:13:07.162Z,21.75
2018-09-09T17:15:35.817Z,21.67
2018-09-09T17:18:04.139Z,21.54
2018-09-09T17:20:32.645Z,21.31
2018-09-09T17:23:01.511Z,21.19
2018-09-09T17:25:37.123Z,20.98
2018-09-09T17:28:05.581Z,20.88
2018-09-09T17:30:33.894Z,20.73
2018-09-09T17:33:02.285Z,20.60
2018-09-09T17:35:30.924Z,20.48
2018-09-09T17:37:59.741Z,20.42
2018-09-09T17:40:28.887Z,20.26
2018-09-09T17:42:58.639Z,20.17
2018-09-09T17:45:28.176Z,20.04
2018-09-09T17:47:56.839Z,19.95
2018-09-09T17:50:25.210Z,19.82
2018-09-09T17:52:54.172Z,19.73
2018-09-09T17:55:22.944Z,19.61
2018-09-09T17:57:51.814Z,19.50
2018-09-09T18:00:20.265Z,19.36
2018-09-09T18:02:48.879Z,19.23
2018-09-09T18:05:23.005Z,19.19
2018-09-09T18:07:51.729Z,19.17
2018-09-09T18:10:20.264Z,19.10
2018-09-09T18:12:48.679Z,19.02
2018-09-09T18:15:18.548Z,18.87
2018-09-09T18:17:47.256Z,18.78
2018-09-09T18:20:17.069Z,18.67
2018-09-09T18:22:45.929Z,18.54
2018-09-09T18:25:16.435Z,18.43
2018-09-09T18:27:44.919Z,18.34
2018-09-09T18:30:13.576Z,18.28
2018-09-09T18:32:42.724Z,18.18
2018-09-09T18:35:18.840Z,18.07
2018-09-09T18:37:48.062Z,17.96
2018-09-09T18:40:17.376Z,17.97
2018-09-09T18:42:47.408Z,17.88
2018-09-09T18:45:16.671Z,17.82
2018-09-09T18:47:47.304Z,17.74
2018-09-09T18:50:16.531Z,17.66
2018-09-09T18:52:46.313Z,17.57
2018-09-09T18:55:15.725Z,17.53
2018-09-09T18:57:44.199Z,17.43
2018-09-09T19:00:12.892Z,17.40
2018-09-09T19:02:45.727Z,17.35
2018-09-09T19:05:15.806Z,17.25
2018-09-09T19:07:45.353Z,17.20
2018-09-09T19:10:14.409Z,17.17
2018-09-09T19:12:44.572Z,17.12
2018-09-09T19:15:12.978Z,17.03
2018-09-09T19:17:41.851Z,16.99
2018-09-09T19:20:10.436Z,16.96
2018-09-09T19:22:40.574Z,16.84
2018-09-09T19:25:09.373Z,16.83
2018-09-09T19:27:37.969Z,16.76
2018-09-09T19:30:07.098Z,16.84
2018-09-09T19:32:36.489Z,16.70
2018-09-09T19:35:07.391Z,16.76
2018-09-09T19:37:38.309Z,16.70
2018-09-09T19:40:08.304Z,16.65
2018-09-09T19:42:38.097Z,16.64
2018-09-09T19:45:08.201Z,16.66
2018-09-09T19:47:36.751Z,16.66
2018-09-09T19:50:06.292Z,16.67
2018-09-09T19:52:35.072Z,16.62
2018-09-09T19:55:04.302Z,16.65
2018-09-09T19:57:34.640Z,16.60
2018-09-09T20:00:04.228Z,16.62
2018-09-09T20:02:33.795Z,16.58
2018-09-09T20:05:03.498Z,16.51
2018-09-09T20:07:32.854Z,16.46
2018-09-09T20:10:02.214Z,16.41
2018-09-09T20:12:30.993Z,16.43
2018-09-09T20:14:59.890Z,16.40
2018-09-09T20:17:28.244Z,16.36
2018-09-09T20:19:56.668Z,16.35
2018-09-09T20:22:27.459Z,16.32
2018-09-09T20:24:56.408Z,16.30
2018-09-09T20:27:24.932Z,16.27
2018-09-09T20:29:54.418Z,16.20
2018-09-09T20:32:23.466Z,16.13
2018-09-09T20:34:52.989Z,16.06
2018-09-09T20:37:22.910Z,16.05
2018-09-09T20:39:51.248Z,15.98
2018-09-09T20:42:19.685Z,15.92
2018-09-09T20:44:49.197Z,15.89
2018-09-09T20:47:17.532Z,15.84
2018-09-09T20:49:46.340Z,15.81
2018-09-09T20:52:15.206Z,15.73
2018-09-09T20:54:45.769Z,15.63
2018-09-09T20:57:14.532Z,15.60
2018-09-09T20:59:43.647Z,15.59
2018-09-09T21:02:12.316Z,15.49
2018-09-09T21:04:41.049Z,15.46
2018-09-09T21:07:10.109Z,15.40
2018-09-09T21:09:39.075Z,15.42
2018-09-09T21:12:07.681Z,15.36
2018-09-09T21:14:36.276Z,15.26
2018-09-09T21:17:04.778Z,15.16
2018-09-09T21:19:33.226Z,15.13
2018-09-09T21:22:02.156Z,15.12
2018-09-09T21:24:30.573Z,15.16
2018-09-09T21:26:58.932Z,15.07
2018-09-09T21:29:28.280Z,15.00
2018-09-09T21:31:56.697Z,15.00
2018-09-09T21:34:29.168Z,15.00
2018-09-09T21:36:58.981Z,14.92
2018-09-09T21:39:28.282Z,14.88
2018-09-09T21:41:57.676Z,14.80
2018-09-09T21:44:27.104Z,14.84
2018-09-09T21:46:56.527Z,14.77
2018-09-09T21:49:25.074Z,14.75
2018-09-09T21:51:54.350Z,14.75
2018-09-09T21:54:23.272Z,14.68
2018-09-09T21:56:51.990Z,14.65
2018-09-09T21:59:20.658Z,14.55
2018-09-09T22:01:54.903Z,14.54
2018-09-09T22:04:26.982Z,14.54
2018-09-09T22:06:55.542Z,14.45
2018-09-09T22:09:23.916Z,14.45
2018-09-09T22:11:52.433Z,14.41
2018-09-09T22:14:21.407Z,14.40
2018-09-09T22:16:51.193Z,14.37
2018-09-09T22:19:19.495Z,14.30
2018-09-09T22:21:50.035Z,14.30
2018-09-09T22:24:20.856Z,14.24
2018-09-09T22:26:50.274Z,14.21
2018-09-09T22:29:19.383Z,14.19
2018-09-09T22:31:49.538Z,14.17
2018-09-09T22:34:20.236Z,14.12
2018-09-09T22:36:49.833Z,14.06
2018-09-09T22:39:18.108Z,14.00
2018-09-09T22:41:46.556Z,13.99
2018-09-09T22:44:14.807Z,13.93
2018-09-09T22:46:44.049Z,13.92
2018-09-09T22:49:12.341Z,13.92
2018-09-09T22:51:47.394Z,13.85
2018-09-09T22:54:15.845Z,13.82
2018-09-09T22:56:44.241Z,13.78
2018-09-09T22:59:13.040Z,13.78
2018-09-09T23:01:41.654Z,13.75
2018-09-09T23:04:10.699Z,13.68
2018-09-09T23:06:39.541Z,13.68
2018-09-09T23:09:09.501Z,13.61
2018-09-09T23:11:38.774Z,13.59
2018-09-09T23:14:07.361Z,13.62
2018-09-09T23:16:36.002Z,13.58
2018-09-09T23:19:04.447Z,13.56
2018-09-09T23:21:32.859Z,13.54
2018-09-09T23:24:01.137Z,13.51
2018-09-09T23:26:29.455Z,13.54
2018-09-09T23:28:58.192Z,13.47
2018-09-09T23:31:26.504Z,13.44
2018-09-09T23:33:55.045Z,13.39
2018-09-09T23:36:24.490Z,13.34
2018-09-09T23:38:53.821Z,13.31
2018-09-09T23:41:22.113Z,13.26
2018-09-09T23:43:50.506Z,13.26
2018-09-09T23:46:18.800Z,13.23
2018-09-09T23:48:47.083Z,13.26
2018-09-09T23:51:15.372Z,13.17
2018-09-09T23:53:43.825Z,13.15
2018-09-09T23:56:12.104Z,13.18
2018-09-09T23:58:40.401Z,13.11
